Time;durP1;ratioP1;P1;durP2;ratioP2;P2;SDS_P1;SDS_P2;PMS_P1;PMS_P2;Temp;Humidity;BMP_temperature;BMP_pressure;BME280_temperature;BME280_humidity;BME280_pressure;Samples;Min_cycle;Max_cycle;Signal;HPM_P1;HPM_P2
2023/08/30 00:00:11;;;;;;;92.82;53.22;;;16.80;92.60;;;;;;4910169;28;90969;-81
2023/08/30 00:02:37;;;;;;;92.82;52.90;;;16.80;92.50;;;;;;4913213;28;91207;-81
2023/08/30 00:05:03;;;;;;;93.90;53.72;;;16.80;93.10;;;;;;4927772;28;89499;-81
2023/08/30 00:07:29;;;;;;;93.57;53.25;;;16.80;92.40;;;;;;4935386;28;94175;-81
2023/08/30 00:09:56;;;;;;;94.05;53.35;;;16.80;92.40;;;;;;4926864;28;90080;-82
2023/08/30 00:12:21;;;;;;;93.25;53.30;;;16.80;92.70;;;;;;4932932;28;91470;-82
2023/08/30 00:14:48;;;;;;;93.03;53.17;;;16.80;92.90;;;;;;4934958;28;92332;-80
2023/08/30 00:17:14;;;;;;;94.22;53.55;;;16.80;92.60;;;;;;4923137;28;93279;-82
2023/08/30 00:19:40;;;;;;;93.57;53.17;;;16.80;92.50;;;;;;4934415;28;89301;-80
2023/08/30 00:22:08;;;;;;;95.05;53.47;;;16.80;92.80;;;;;;4923785;28;91686;-80
2023/08/30 00:24:34;;;;;;;94.95;53.95;;;16.80;92.90;;;;;;4933439;28;89911;-82
2023/08/30 00:27:01;;;;;;;93.13;53.00;;;16.80;92.90;;;;;;4913651;28;93392;-82
2023/08/30 00:29:28;;;;;;;93.72;53.30;;;16.80;92.80;;;;;;4904701;28;89291;-80
2023/08/30 00:31:54;;;;;;;95.20;53.30;;;16.70;92.60;;;;;;4905426;28;92423;-82
2023/08/30 00:34:21;;;;;;;93.28;53.13;;;16.70;92.00;;;;;;4932462;28;90803;-82
2023/08/30 00:36:47;;;;;;;93.85;53.35;;;16.70;92.70;;;;;;4929109;28;89018;-79
2023/08/30 00:39:13;;;;;;;93.20;53.25;;;16.70;93.00;;;;;;4928361;28;91832;-78
2023/08/30 00:41:39;;;;;;;92.50;52.83;;;16.70;92.90;;;;;;4914409;28;92545;-83
2023/08/30 00:44:04;;;;;;;94.70;53.60;;;16.70;92.60;;;;;;4923694;28;90240;-83
2023/08/30 00:46:32;;;;;;;92.90;53.20;;;16.70;92.40;;;;;;4933550;28;89251;-82
2023/08/30 00:48:58;;;;;;;92.78;52.92;;;16.70;93.10;;;;;;4928941;28;88837;-82
2023/08/30 00:51:24;;;;;;;93.43;52.85;;;16.70;92.90;;;;;;4930207;28;92020;-82
2023/08/30 00:53:50;;;;;;;92.97;53.30;;;16.70;92.70;;;;;;4923960;28;92833;-82
2023/08/30 00:56:17;;;;;;;92.97;53.10;;;16.70;92.10;;;;;;4923108;28;91948;-80
2023/08/30 00:58:42;;;;;;;94.57;53.22;;;16.80;92.60;;;;;;4913825;28;89147;-82
2023/08/30 01:01:09;;;;;;;93.75;53.25;;;16.80;92.70;;;;;;4914763;28;91062;-81
2023/08/30 01:03:35;;;;;;;94.47;53.42;;;16.80;92.30;;;;;;4905194;28;89099;-83
2023/08/30 01:06:01;;;;;;;93.15;53.08;;;16.80;92.80;;;;;;4913968;28;89021;-80
2023/08/30 01:08:27;;;;;;;95.35;53.80;;;16.80;92.60;;;;;;4930356;28;93682;-79
2023/08/30 01:11:24;;;;;;;93.00;53.20;;;16.80;92.90;;;;;;4925872;28;90896;-80
2023/08/30 01:14:06;;;;;;;93.60;53.42;;;16.90;92.70;;;;;;4932260;28;89128;-80
2023/08/30 01:16:32;;;;;;;93.70;53.47;;;16.90;92.90;;;;;;4910195;28;93975;-83
2023/08/30 01:19:00;;;;;;;93.78;53.28;;;16.90;92.60;;;;;;4925205;28;89886;-82
2023/08/30 01:22:07;;;;;;;94.38;53.53;;;16.90;92.70;;;;;;4932242;28;90089;-80
2023/08/30 01:24:45;;;;;;;93.88;53.47;;;16.90;92.50;;;;;;4910014;28;90295;-82
2023/08/30 01:27:12;;;;;;;92.70;53.05;;;16.90;92.70;;;;;;4906026;28;90137;-82
2023/08/30 01:29:41;;;;;;;93.85;53.55;;;16.90;92.70;;;;;;4921936;28;91563;-81
2023/08/30 01:32:09;;;;;;;93.80;53.58;;;17.00;92.40;;;;;;4928885;28;92848;-82
2023/08/30 01:34:39;;;;;;;93.00;53.22;;;17.00;93.00;;;;;;4925906;28;91565;-83
2023/08/30 01:37:08;;;;;;;93.63;53.45;;;17.00;92.50;;;;;;4928024;28;91402;-81
2023/08/30 01:39:35;;;;;;;93.60;53.30;;;17.00;92.30;;;;;;4924926;28;89406;-80
2023/08/30 01:42:02;;;;;;;94.25;53.78;;;17.00;92.00;;;;;;4924728;28;91590;-81
2023/08/30 01:44:28;;;;;;;92.95;52.83;;;17.00;92.10;;;;;;4923125;28;92349;-83
2023/08/30 01:46:56;;;;;;;93.00;53.15;;;17.00;92.00;;;;;;4929807;28;90133;-81
2023/08/30 01:49:22;;;;;;;93.45;53.35;;;17.00;91.90;;;;;;4926318;28;89785;-80
2023/08/30 01:51:49;;;;;;;92.97;53.10;;;17.00;92.50;;;;;;4924653;28;90541;-79
2023/08/30 01:54:18;;;;;;;93.22;53.33;;;17.10;92.00;;;;;;4923009;28;89695;-80
2023/08/30 01:56:45;;;;;;;95.28;53.50;;;17.10;91.60;;;;;;4930011;28;90722;-80
2023/08/30 01:59:10;;;;;;;93.70;53.70;;;17.10;92.20;;;;;;4926241;28;90593;-82
2023/08/30 02:01:36;;;;;;;92.90;53.15;;;17.10;92.20;;;;;;4920601;28;91772;-82
2023/08/30 02:04:02;;;;;;;93.63;53.42;;;17.10;91.90;;;;;;4930683;28;93516;-80
2023/08/30 02:06:54;;;;;;;92.90;53.15;;;17.10;92.00;;;;;;4906284;28;90669;-79
2023/08/30 02:09:26;;;;;;;94.47;53.47;;;17.10;91.70;;;;;;4922376;28;89471;-82
2023/08/30 02:11:53;;;;;;;94.95;53.53;;;17.10;91.70;;;;;;4927688;28;91293;-80
2023/08/30 02:14:21;;;;;;;94.63;53.60;;;17.10;91.70;;;;;;4925110;28;90359;-82
2023/08/30 02:16:48;;;;;;;91.93;52.63;;;17.20;91.80;;;;;;4936426;28;89527;-81
2023/08/30 02:19:20;;;;;;;92.57;53.03;;;17.20;92.10;;;;;;4910502;28;89493;-81
2023/08/30 02:21:47;;;;;;;93.95;53.47;;;17.10;91.30;;;;;;4908310;28;90650;-82
2023/08/30 02:24:12;;;;;;;93.35;53.20;;;17.20;91.80;;;;;;4925499;28;91065;-82
2023/08/30 02:26:38;;;;;;;93.20;53.30;;;17.20;92.10;;;;;;4921659;28;90196;-77
2023/08/30 02:29:04;;;;;;;93.20;53.03;;;17.20;91.60;;;;;;4909572;28;88650;-81
2023/08/30 02:31:30;;;;;;;93.65;53.28;;;17.20;91.70;;;;;;4906243;28;90407;-82
2023/08/30 02:33:55;;;;;;;93.97;53.63;;;17.20;91.60;;;;;;4929404;28;90490;-80
2023/08/30 02:36:21;;;;;;;93.75;53.17;;;17.20;91.80;;;;;;4929257;28;91320;-81
2023/08/30 02:38:47;;;;;;;92.55;53.10;;;17.20;91.30;;;;;;4929161;28;89298;-81
2023/08/30 02:41:12;;;;;;;92.35;52.97;;;17.20;91.50;;;;;;4920058;28;90063;-83
2023/08/30 02:43:38;;;;;;;94.10;53.45;;;17.20;91.70;;;;;;4929505;28;94062;-82
2023/08/30 02:46:05;;;;;;;93.63;53.25;;;17.20;91.30;;;;;;4924031;28;94353;-80
2023/08/30 02:48:31;;;;;;;93.43;53.10;;;17.20;91.50;;;;;;4926101;28;90074;-80
2023/08/30 02:50:57;;;;;;;93.85;53.28;;;17.30;91.30;;;;;;4923549;28;90320;-82
2023/08/30 02:53:23;;;;;;;94.28;53.58;;;17.30;91.20;;;;;;4912252;28;90035;-81
2023/08/30 02:55:49;;;;;;;93.25;53.05;;;17.30;91.40;;;;;;4931419;28;89938;-83
2023/08/30 02:58:15;;;;;;;92.93;53.10;;;17.30;91.30;;;;;;4908750;28;91672;-82
2023/08/30 03:00:41;;;;;;;94.50;53.55;;;17.30;91.60;;;;;;4925305;28;91161;-82
2023/08/30 03:03:06;;;;;;;93.43;53.20;;;17.30;91.70;;;;;;4907325;28;92963;-82
2023/08/30 03:05:32;;;;;;;93.30;53.20;;;17.30;91.20;;;;;;4924553;28;89477;-82
2023/08/30 03:07:58;;;;;;;93.35;53.55;;;17.30;91.50;;;;;;4924986;28;90956;-82
2023/08/30 03:10:24;;;;;;;93.60;53.53;;;17.30;91.20;;;;;;4906399;28;89303;-81
2023/08/30 03:12:49;;;;;;;93.65;53.20;;;17.20;91.10;;;;;;4911205;28;91423;-81
2023/08/30 03:15:15;;;;;;;93.75;53.35;;;17.30;91.00;;;;;;4924798;28;91538;-81
2023/08/30 03:17:41;;;;;;;93.35;53.20;;;17.30;91.60;;;;;;4905065;28;90487;-80
2023/08/30 03:20:07;;;;;;;93.15;53.10;;;17.30;91.50;;;;;;4925758;28;90581;-82
2023/08/30 03:22:32;;;;;;;93.57;53.28;;;17.20;91.00;;;;;;4925044;28;90369;-80
2023/08/30 03:24:58;;;;;;;93.30;53.17;;;17.20;91.10;;;;;;4928849;28;91685;-81
2023/08/30 03:27:24;;;;;;;93.03;53.17;;;17.20;91.30;;;;;;4932081;28;89050;-82
2023/08/30 03:29:50;;;;;;;92.95;53.35;;;17.20;91.10;;;;;;4908532;28;92100;-81
2023/08/30 03:32:17;;;;;;;94.10;53.38;;;17.30;91.30;;;;;;4928828;28;89627;-81
2023/08/30 03:34:47;;;;;;;95.07;53.60;;;17.20;90.90;;;;;;4931426;28;88851;-83
2023/08/30 03:37:15;;;;;;;92.95;53.17;;;17.20;91.20;;;;;;4934033;28;91957;-82
2023/08/30 03:39:41;;;;;;;93.22;53.00;;;17.20;91.10;;;;;;4927727;28;90339;-83
2023/08/30 03:42:07;;;;;;;92.78;52.85;;;17.30;91.30;;;;;;4932590;28;89974;-81
2023/08/30 03:44:33;;;;;;;92.78;53.30;;;17.20;91.50;;;;;;4921885;28;89715;-83
2023/08/30 03:46:59;;;;;;;92.65;53.22;;;17.20;91.10;;;;;;4931520;28;89602;-82
2023/08/30 03:49:24;;;;;;;92.88;53.13;;;17.20;91.60;;;;;;4924312;28;92222;-82
2023/08/30 03:51:50;;;;;;;93.40;53.13;;;17.20;91.50;;;;;;4930579;28;93863;-81
2023/08/30 03:54:18;;;;;;;93.30;53.60;;;17.20;91.20;;;;;;4930218;28;93337;-82
2023/08/30 03:56:44;;;;;;;94.25;53.72;;;17.20;91.00;;;;;;4928798;28;90888;-80
2023/08/30 03:59:13;;;;;;;92.18;53.30;;;17.20;91.30;;;;;;4932157;28;92217;-80
2023/08/30 04:01:39;;;;;;;93.13;53.25;;;17.20;91.10;;;;;;4913345;28;90427;-83
2023/08/30 04:04:05;;;;;;;92.78;52.72;;;17.20;91.40;;;;;;4932257;28;93959;-82
2023/08/30 04:06:31;;;;;;;93.53;53.55;;;17.20;91.40;;;;;;4928275;28;88572;-81
2023/08/30 04:08:56;;;;;;;93.22;53.42;;;17.20;91.30;;;;;;4941674;28;89971;-80
2023/08/30 04:11:22;;;;;;;92.90;53.03;;;17.20;91.40;;;;;;4930860;28;91679;-82
2023/08/30 04:13:48;;;;;;;92.88;53.17;;;17.20;91.60;;;;;;4934710;28;90197;-82
2023/08/30 04:16:13;;;;;;;91.82;52.72;;;17.20;91.30;;;;;;4921049;28;89187;-83
2023/08/30 04:18:39;;;;;;;93.15;53.17;;;17.20;91.60;;;;;;4928117;28;89302;-82
2023/08/30 04:21:06;;;;;;;93.25;53.42;;;17.20;91.30;;;;;;4910468;28;94487;-82
2023/08/30 04:23:31;;;;;;;92.68;53.17;;;17.20;91.20;;;;;;4930220;28;89170;-80
2023/08/30 04:25:57;;;;;;;93.40;53.58;;;17.20;91.50;;;;;;4928977;28;89664;-82
2023/08/30 04:28:23;;;;;;;93.03;53.35;;;17.20;91.30;;;;;;4930999;28;91700;-82
2023/08/30 04:30:48;;;;;;;93.85;53.67;;;17.20;91.30;;;;;;4932717;28;91794;-83
2023/08/30 04:33:14;;;;;;;92.88;53.33;;;17.20;91.30;;;;;;4912386;28;92545;-82
2023/08/30 04:35:40;;;;;;;92.90;53.03;;;17.20;91.40;;;;;;4929913;28;91251;-80
2023/08/30 04:38:05;;;;;;;93.53;53.22;;;17.20;91.70;;;;;;4925201;28;92773;-82
2023/08/30 04:40:32;;;;;;;92.90;53.20;;;17.20;91.70;;;;;;4908697;28;92321;-79
2023/08/30 04:43:00;;;;;;;93.45;53.38;;;17.20;91.30;;;;;;4927959;28;90778;-83
2023/08/30 04:45:26;;;;;;;92.53;53.17;;;17.20;91.50;;;;;;4928420;28;94423;-82
2023/08/30 04:47:52;;;;;;;93.07;53.65;;;17.20;91.80;;;;;;4932425;28;92683;-81
2023/08/30 04:50:18;;;;;;;93.65;53.92;;;17.30;91.10;;;;;;4930534;28;91741;-83
2023/08/30 04:52:44;;;;;;;93.05;53.40;;;17.20;91.30;;;;;;4936275;28;90274;-83
2023/08/30 04:55:10;;;;;;;95.35;53.67;;;17.20;91.10;;;;;;4931343;28;88940;-79
2023/08/30 04:57:36;;;;;;;92.50;53.25;;;17.20;91.30;;;;;;4931146;28;90111;-80
2023/08/30 05:00:04;;;;;;;92.80;53.10;;;17.20;91.50;;;;;;4943002;28;90215;-77
2023/08/30 05:02:31;;;;;;;93.15;53.40;;;17.20;91.30;;;;;;4934769;28;93529;-85
2023/08/30 05:04:56;;;;;;;92.53;53.28;;;17.20;91.10;;;;;;4925283;28;90524;-83
2023/08/30 05:07:22;;;;;;;93.85;53.72;;;17.30;91.40;;;;;;4935785;28;89884;-84
2023/08/30 05:09:48;;;;;;;94.00;53.45;;;17.20;91.00;;;;;;4935529;28;90458;-79
2023/08/30 05:12:13;;;;;;;92.88;52.90;;;17.30;91.30;;;;;;4929944;28;89878;-77
2023/08/30 05:14:40;;;;;;;92.68;53.20;;;17.30;91.40;;;;;;4927799;28;90419;-79
2023/08/30 05:17:06;;;;;;;93.35;53.30;;;17.30;91.50;;;;;;4913005;28;89755;-76
2023/08/30 05:19:32;;;;;;;93.43;53.50;;;17.30;91.50;;;;;;4939234;28;89041;-79
2023/08/30 05:21:57;;;;;;;94.75;54.03;;;17.30;91.20;;;;;;4932272;28;89106;-80
2023/08/30 05:24:23;;;;;;;94.00;53.70;;;17.30;91.30;;;;;;4925192;28;89925;-78
2023/08/30 05:26:49;;;;;;;93.43;53.30;;;17.30;91.50;;;;;;4927179;28;90387;-76
2023/08/30 05:29:15;;;;;;;92.20;52.83;;;17.30;91.20;;;;;;4917634;28;90527;-81
2023/08/30 05:31:41;;;;;;;93.72;53.83;;;17.30;91.50;;;;;;4928532;28;91508;-81
2023/08/30 05:34:07;;;;;;;93.13;53.63;;;17.30;91.20;;;;;;4912058;28;90177;-80
2023/08/30 05:36:34;;;;;;;93.10;53.58;;;17.30;91.30;;;;;;4929079;28;89482;-80
2023/08/30 05:38:59;;;;;;;94.18;54.15;;;17.30;91.10;;;;;;4939390;28;90474;-80
2023/08/30 05:41:25;;;;;;;94.95;54.45;;;17.30;91.10;;;;;;4930734;28;89535;-80
2023/08/30 05:43:51;;;;;;;93.05;53.45;;;17.30;91.30;;;;;;4940740;28;87889;-80
2023/08/30 05:46:17;;;;;;;92.78;53.35;;;17.30;91.20;;;;;;4934922;28;89736;-79
2023/08/30 05:48:43;;;;;;;93.28;53.53;;;17.30;91.50;;;;;;4943013;28;90219;-81
2023/08/30 05:51:09;;;;;;;93.68;53.65;;;17.30;91.30;;;;;;4919844;28;90637;-81
2023/08/30 05:53:34;;;;;;;94.03;53.63;;;17.30;91.10;;;;;;4932380;28;91110;-76
2023/08/30 05:56:00;;;;;;;94.30;53.67;;;17.30;91.30;;;;;;4925187;28;92494;-80
2023/08/30 05:58:26;;;;;;;96.00;54.58;;;17.30;91.70;;;;;;4938980;28;90144;-78
2023/08/30 06:00:51;;;;;;;94.28;54.55;;;17.30;91.30;;;;;;4918260;28;90084;-81
2023/08/30 06:03:17;;;;;;;93.82;53.58;;;17.30;91.20;;;;;;4936014;28;89702;-81
2023/08/30 06:05:42;;;;;;;94.53;53.60;;;17.30;91.60;;;;;;4917633;28;89975;-82
2023/08/30 06:08:08;;;;;;;94.03;53.90;;;17.30;91.60;;;;;;4909355;28;90993;-82
2023/08/30 06:10:35;;;;;;;95.47;54.42;;;17.30;91.20;;;;;;4929299;28;94130;-78
2023/08/30 06:13:02;;;;;;;95.07;53.75;;;17.30;91.40;;;;;;4919590;28;92848;-80
2023/08/30 06:15:28;;;;;;;95.88;53.83;;;17.40;92.00;;;;;;4923393;28;93637;-81
2023/08/30 06:17:53;;;;;;;94.00;53.65;;;17.40;91.60;;;;;;4940767;28;90363;-79
2023/08/30 06:20:19;;;;;;;95.70;54.47;;;17.40;90.90;;;;;;4923851;28;90322;-81
2023/08/30 06:22:45;;;;;;;101.47;55.47;;;17.50;91.10;;;;;;4922790;28;89383;-77
2023/08/30 06:25:10;;;;;;;104.57;55.42;;;17.50;92.10;;;;;;4923207;28;89751;-78
2023/08/30 06:27:54;;;;;;;97.95;55.17;;;17.60;91.90;;;;;;4925819;28;90633;-76
2023/08/30 06:30:20;;;;;;;102.63;55.72;;;17.70;90.70;;;;;;4932683;28;91968;-76
2023/08/30 06:32:45;;;;;;;99.15;55.45;;;17.70;91.40;;;;;;4935426;28;90385;-77
2023/08/30 06:35:11;;;;;;;96.30;54.35;;;17.60;90.50;;;;;;4936121;28;89379;-80
2023/08/30 06:37:37;;;;;;;96.13;54.40;;;17.60;91.20;;;;;;4914377;28;92142;-77
2023/08/30 06:40:03;;;;;;;98.25;54.88;;;17.70;91.20;;;;;;4940346;28;90565;-75
2023/08/30 06:42:29;;;;;;;95.95;54.05;;;17.70;91.20;;;;;;4932653;28;90740;-79
2023/08/30 06:44:54;;;;;;;99.35;54.25;;;17.70;90.50;;;;;;4921455;28;92173;-77
2023/08/30 06:47:20;;;;;;;97.70;54.35;;;17.70;90.50;;;;;;4936856;28;91493;-77
2023/08/30 06:49:46;;;;;;;96.10;54.38;;;17.70;90.50;;;;;;4934155;28;90439;-79
2023/08/30 06:52:12;;;;;;;98.63;54.55;;;17.70;90.30;;;;;;4925422;28;90641;-78
2023/08/30 06:54:37;;;;;;;98.18;54.42;;;17.70;90.20;;;;;;4934272;28;89451;-77
2023/08/30 06:57:03;;;;;;;97.43;54.42;;;17.80;90.40;;;;;;4933794;28;88743;-78
2023/08/30 06:59:29;;;;;;;97.97;54.70;;;17.80;90.50;;;;;;4921859;28;88747;-77
2023/08/30 07:01:55;;;;;;;97.85;54.92;;;17.80;90.70;;;;;;4933401;28;89131;-74
2023/08/30 07:04:21;;;;;;;98.07;55.05;;;17.80;91.20;;;;;;4929296;28;91092;-76
2023/08/30 07:06:46;;;;;;;97.80;54.78;;;17.80;90.00;;;;;;4943097;28;89980;-79
2023/08/30 07:09:12;;;;;;;98.10;54.60;;;17.80;89.40;;;;;;4930745;28;93209;-77
2023/08/30 07:11:38;;;;;;;100.78;55.17;;;17.80;90.00;;;;;;4934669;28;91740;-75
2023/08/30 07:14:04;;;;;;;96.90;54.67;;;17.80;89.50;;;;;;4918829;28;92900;-77
2023/08/30 07:16:31;;;;;;;96.75;54.17;;;17.80;90.00;;;;;;4912665;28;90868;-78
2023/08/30 07:18:58;;;;;;;99.70;55.22;;;17.90;89.60;;;;;;4918678;28;90346;-76
2023/08/30 07:21:24;;;;;;;97.70;54.30;;;17.90;90.30;;;;;;4921635;28;88771;-78
2023/08/30 07:23:49;;;;;;;104.18;55.08;;;17.90;88.80;;;;;;4909382;28;90884;-79
2023/08/30 07:26:15;;;;;;;102.30;55.85;;;17.90;90.00;;;;;;4922028;28;89186;-80
2023/08/30 07:28:41;;;;;;;95.72;54.13;;;17.90;90.50;;;;;;4915607;28;93087;-80
2023/08/30 07:31:06;;;;;;;99.05;55.35;;;18.00;89.90;;;;;;4923409;28;89062;-79
2023/08/30 07:33:32;;;;;;;100.40;54.88;;;17.90;89.10;;;;;;4929593;28;92487;-79
2023/08/30 07:35:58;;;;;;;98.80;54.65;;;18.00;90.00;;;;;;4926158;28;89348;-76
2023/08/30 07:38:24;;;;;;;97.75;54.28;;;18.00;89.60;;;;;;4927604;28;89905;-77
2023/08/30 07:40:49;;;;;;;97.63;54.40;;;18.00;88.80;;;;;;4921544;28;91685;-76
2023/08/30 07:43:17;;;;;;;97.13;54.15;;;18.00;89.00;;;;;;4929187;28;94637;-77
2023/08/30 07:45:42;;;;;;;96.95;54.78;;;18.00;88.50;;;;;;4905320;28;89376;-80
2023/08/30 07:48:08;;;;;;;100.80;55.13;;;18.10;88.80;;;;;;4910657;28;89341;-80
2023/08/30 07:50:33;;;;;;;101.30;55.25;;;18.00;89.00;;;;;;4917644;28;90473;-80
2023/08/30 07:52:59;;;;;;;100.43;55.08;;;18.10;89.00;;;;;;4921421;28;91166;-81
2023/08/30 07:55:25;;;;;;;98.82;54.97;;;18.10;89.70;;;;;;4931641;28;90030;-81
2023/08/30 07:57:51;;;;;;;96.65;54.67;;;18.10;88.30;;;;;;4914639;28;89531;-81
2023/08/30 08:00:16;;;;;;;97.70;55.15;;;18.10;88.20;;;;;;4910040;28;97557;-80
2023/08/30 08:02:42;;;;;;;97.55;54.72;;;18.20;88.50;;;;;;4918298;28;91589;-81
2023/08/30 08:05:08;;;;;;;96.75;54.47;;;18.20;88.40;;;;;;4909406;28;91614;-79
2023/08/30 08:07:38;;;;;;;98.35;54.90;;;18.20;87.30;;;;;;4920216;28;94207;-80
2023/08/30 08:10:05;;;;;;;98.38;54.80;;;18.20;87.70;;;;;;4925744;28;93209;-80
2023/08/30 08:12:32;;;;;;;98.70;55.15;;;18.20;88.20;;;;;;4915237;28;91455;-80
2023/08/30 08:14:58;;;;;;;96.60;54.80;;;18.20;88.10;;;;;;4929739;28;92045;-77
2023/08/30 08:17:23;;;;;;;97.60;54.78;;;18.20;87.30;;;;;;4920366;28;89968;-79
2023/08/30 08:19:49;;;;;;;97.20;54.78;;;18.30;88.20;;;;;;4929665;28;90691;-79
2023/08/30 08:22:14;;;;;;;98.28;55.00;;;18.30;87.80;;;;;;4917575;28;89901;-79
2023/08/30 08:24:40;;;;;;;103.10;55.40;;;18.30;87.40;;;;;;4930821;28;94410;-80
2023/08/30 08:27:05;;;;;;;98.13;55.33;;;18.40;87.90;;;;;;4933501;28;90170;-79
2023/08/30 08:29:31;;;;;;;97.25;55.03;;;18.40;86.70;;;;;;4915678;28;89514;-79
2023/08/30 08:31:57;;;;;;;98.55;55.03;;;18.40;87.00;;;;;;4930976;28;90634;-82
2023/08/30 08:34:22;;;;;;;98.75;55.65;;;18.40;86.60;;;;;;4934592;28;89864;-81
2023/08/30 08:36:48;;;;;;;97.55;55.20;;;18.40;86.40;;;;;;4932259;28;89805;-81
2023/08/30 08:39:14;;;;;;;99.55;55.33;;;18.50;87.20;;;;;;4918161;28;90578;-81
2023/08/30 08:41:42;;;;;;;100.78;55.40;;;18.50;86.50;;;;;;4935936;28;93440;-81
2023/08/30 08:44:08;;;;;;;98.75;55.17;;;18.60;86.80;;;;;;4928756;28;92268;-82
2023/08/30 08:46:40;;;;;;;99.28;55.42;;;18.60;86.50;;;;;;4937568;28;89186;-80
2023/08/30 08:49:13;;;;;;;98.90;55.10;;;18.60;86.20;;;;;;4930779;28;89896;-81
2023/08/30 08:51:39;;;;;;;98.93;54.85;;;18.60;86.90;;;;;;4934523;28;91304;-79
2023/08/30 08:54:05;;;;;;;100.25;55.92;;;18.70;87.30;;;;;;4920718;28;89554;-80
2023/08/30 08:56:32;;;;;;;100.90;55.60;;;18.70;86.40;;;;;;4922097;28;90807;-80
2023/08/30 08:58:58;;;;;;;100.20;55.45;;;18.80;87.60;;;;;;4932114;28;89148;-79
2023/08/30 09:01:24;;;;;;;98.93;55.35;;;18.70;86.80;;;;;;4930402;28;91757;-81
2023/08/30 09:03:50;;;;;;;101.70;55.70;;;18.80;90.00;;;;;;4935920;28;92347;-80
2023/08/30 09:06:18;;;;;;;100.82;55.78;;;18.80;87.10;;;;;;4900745;28;91424;-78
2023/08/30 09:08:43;;;;;;;101.43;55.53;;;18.90;89.80;;;;;;4927681;28;91570;-79
2023/08/30 09:11:09;;;;;;;101.28;55.88;;;19.00;87.80;;;;;;4924155;28;89761;-81
2023/08/30 09:13:35;;;;;;;100.32;55.28;;;19.00;86.00;;;;;;4923168;28;89543;-79
2023/08/30 09:16:02;;;;;;;104.63;56.30;;;19.10;85.60;;;;;;4906907;28;91445;-84
2023/08/30 09:18:28;;;;;;;104.65;55.90;;;19.10;89.30;;;;;;4923366;28;89972;-78
2023/08/30 09:21:05;;;;;;;100.03;55.50;;;19.20;89.10;;;;;;4933378;28;90526;-80
2023/08/30 09:23:31;;;;;;;100.55;55.53;;;19.20;86.00;;;;;;4925156;28;90022;-77
2023/08/30 09:25:57;;;;;;;101.63;55.72;;;19.20;85.20;;;;;;4947775;28;89571;-79
2023/08/30 09:28:23;;;;;;;101.78;55.70;;;19.20;84.30;;;;;;4925961;28;89394;-79
2023/08/30 09:30:52;;;;;;;104.40;55.83;;;19.30;84.60;;;;;;4933105;28;90996;-80
2023/08/30 09:33:34;;;;;;;101.15;55.70;;;19.40;88.00;;;;;;4930843;28;93268;-81
2023/08/30 09:35:59;;;;;;;;;;;19.40;85.60;;;;;;4923414;28;91250;-77
2023/08/30 09:38:26;;;;;;;103.10;55.83;;;19.50;87.30;;;;;;4942074;28;90536;-78
2023/08/30 09:40:52;;;;;;;101.53;55.78;;;19.60;84.50;;;;;;4899517;28;92384;-82
2023/08/30 09:43:21;;;;;;;103.10;55.63;;;19.60;83.70;;;;;;4923931;28;89620;-82
2023/08/30 09:45:48;;;;;;;102.95;55.70;;;19.70;83.80;;;;;;4909257;28;90687;-80
2023/08/30 09:48:14;;;;;;;108.45;55.83;;;19.60;84.20;;;;;;4929435;28;90754;-81
2023/08/30 09:50:44;;;;;;;102.55;55.70;;;19.70;83.70;;;;;;4931422;28;89969;-82
2023/08/30 09:53:11;;;;;;;108.25;56.33;;;19.70;83.60;;;;;;4923265;28;90177;-81
2023/08/30 09:55:37;;;;;;;103.97;55.75;;;19.80;85.80;;;;;;4916506;28;92069;-80
2023/08/30 09:58:06;;;;;;;101.90;55.53;;;19.90;83.70;;;;;;4928893;28;89590;-80
2023/08/30 10:00:33;;;;;;;101.82;55.67;;;19.90;83.40;;;;;;4927785;28;89936;-80
2023/08/30 10:03:00;;;;;;;102.18;55.67;;;19.90;82.30;;;;;;4924421;28;90648;-83
2023/08/30 10:05:26;;;;;;;100.22;55.22;;;20.00;83.00;;;;;;4911858;28;90832;-80
2023/08/30 10:07:57;;;;;;;100.70;55.15;;;20.00;82.20;;;;;;4925229;28;89647;-82
2023/08/30 10:10:23;;;;;;;103.63;55.67;;;20.00;81.00;;;;;;4918173;28;90667;-81
2023/08/30 10:12:49;;;;;;;102.03;55.40;;;20.00;80.90;;;;;;4925797;28;90918;-82
2023/08/30 10:15:15;;;;;;;104.68;55.55;;;20.10;82.50;;;;;;4912440;28;91180;-79
2023/08/30 10:17:45;;;;;;;104.90;55.97;;;20.10;83.40;;;;;;4913309;28;91550;-78
2023/08/30 10:20:12;;;;;;;102.13;55.20;;;20.10;82.90;;;;;;4914070;28;96806;-79
2023/08/30 10:22:39;;;;;;;101.53;55.22;;;20.10;82.50;;;;;;4924019;28;94837;-80
2023/08/30 10:25:21;;;;;;;101.40;55.13;;;20.10;81.10;;;;;;4930182;28;89603;-75
2023/08/30 10:27:49;;;;;;;103.32;55.35;;;20.10;81.60;;;;;;4928572;28;89985;-78
2023/08/30 10:30:16;;;;;;;104.03;55.70;;;20.10;81.60;;;;;;4929954;28;90604;-78
2023/08/30 10:32:43;;;;;;;103.15;55.95;;;20.20;81.50;;;;;;4921320;28;90276;-78
2023/08/30 10:35:17;;;;;;;101.07;54.97;;;20.10;81.00;;;;;;4924207;28;89546;-77
2023/08/30 10:37:54;;;;;;;102.30;55.17;;;20.10;81.10;;;;;;4914943;28;90591;-78
2023/08/30 10:40:21;;;;;;;103.30;55.63;;;20.10;81.20;;;;;;4930512;28;90592;-82
2023/08/30 10:43:00;;;;;;;104.20;55.38;;;20.10;81.00;;;;;;4935136;28;90826;-77
2023/08/30 10:45:25;;;;;;;102.43;55.65;;;20.20;81.30;;;;;;4931308;28;92332;-76
2023/08/30 10:47:55;;;;;;;103.85;55.70;;;20.20;80.70;;;;;;4907327;28;90659;-77
2023/08/30 10:50:31;;;;;;;105.93;55.95;;;20.20;81.10;;;;;;4925770;28;89555;-78
2023/08/30 10:52:56;;;;;;;101.85;55.17;;;20.20;82.10;;;;;;4911867;28;95509;-78
2023/08/30 10:55:23;;;;;;;102.75;55.40;;;20.30;81.10;;;;;;4928135;28;93053;-78
2023/08/30 10:58:00;;;;;;;101.75;55.40;;;20.30;80.50;;;;;;4930748;28;90189;-77
2023/08/30 11:00:30;;;;;;;101.88;55.58;;;20.30;80.60;;;;;;4924254;28;91943;-78
2023/08/30 11:02:56;;;;;;;106.30;55.70;;;20.30;72.50;;;;;;4925959;28;91553;-78
2023/08/30 11:05:24;;;;;;;103.40;56.35;;;20.30;65.30;;;;;;4915411;28;91991;-76
2023/08/30 11:07:50;;;;;;;102.70;56.15;;;20.20;66.50;;;;;;4899830;28;90060;-79
2023/08/30 11:10:17;;;;;;;104.65;56.38;;;20.30;66.30;;;;;;4919257;28;91057;-78
2023/08/30 11:12:44;;;;;;;102.57;56.08;;;20.50;66.00;;;;;;4924608;28;90261;-77
2023/08/30 11:15:11;;;;;;;103.07;56.10;;;20.50;68.30;;;;;;4925626;28;90080;-78
2023/08/30 11:17:36;;;;;;;105.30;55.50;;;20.50;67.50;;;;;;4931658;28;91237;-79
2023/08/30 11:20:11;;;;;;;101.38;55.05;;;20.30;61.30;;;;;;4926121;28;89519;-80
2023/08/30 11:22:39;;;;;;;99.82;55.17;;;20.20;62.60;;;;;;4930857;28;91442;-78
2023/08/30 11:25:05;;;;;;;102.60;55.50;;;20.10;61.70;;;;;;4929424;28;89820;-77
2023/08/30 11:27:30;;;;;;;103.35;54.88;;;20.00;61.70;;;;;;4902017;28;89407;-75
2023/08/30 11:30:05;;;;;;;100.97;55.33;;;20.00;63.70;;;;;;4930993;28;94759;-79
2023/08/30 11:32:38;;;;;;;109.43;56.50;;;20.10;62.30;;;;;;4899321;28;91901;-79
2023/08/30 11:35:05;;;;;;;107.10;55.90;;;20.50;66.50;;;;;;4924944;28;90765;-77
2023/08/30 11:37:31;;;;;;;102.82;56.17;;;20.60;62.20;;;;;;4926931;28;90641;-79
2023/08/30 11:39:57;;;;;;;104.07;55.97;;;20.60;62.70;;;;;;4910835;28;91193;-79
2023/08/30 11:42:23;;;;;;;101.63;55.88;;;20.50;63.30;;;;;;4931136;28;90958;-79
2023/08/30 11:44:53;;;;;;;101.90;55.92;;;20.50;62.20;;;;;;4924720;28;91091;-79
2023/08/30 11:47:20;;;;;;;103.32;55.97;;;20.40;67.40;;;;;;4927924;28;90255;-77
2023/08/30 11:49:49;;;;;;;104.63;56.08;;;20.40;66.40;;;;;;4916122;28;92960;-78
2023/08/30 11:52:14;;;;;;;103.32;56.00;;;20.40;64.00;;;;;;4913522;28;90592;-78
2023/08/30 11:54:40;;;;;;;102.05;55.65;;;20.30;64.50;;;;;;4924305;28;91805;-78
2023/08/30 11:57:07;;;;;;;100.75;55.55;;;20.10;62.90;;;;;;4927868;28;90960;-78
2023/08/30 11:59:35;;;;;;;102.15;55.25;;;20.00;65.10;;;;;;4924293;28;92345;-76
2023/08/30 12:02:02;;;;;;;103.88;55.45;;;20.00;65.30;;;;;;4921547;28;89625;-77
2023/08/30 12:04:27;;;;;;;104.20;55.38;;;19.90;64.10;;;;;;4927849;28;90121;-77
2023/08/30 12:06:53;;;;;;;103.40;55.17;;;19.80;63.50;;;;;;4928942;28;89850;-76
2023/08/30 12:09:21;;;;;;;100.70;54.95;;;19.80;67.10;;;;;;4929439;28;89942;-78
2023/08/30 12:11:50;;;;;;;102.22;54.95;;;19.80;61.90;;;;;;4922929;28;91428;-76
2023/08/30 12:14:16;;;;;;;102.00;55.03;;;19.80;60.40;;;;;;4926593;28;89477;-77
2023/08/30 12:16:43;;;;;;;102.75;55.28;;;20.00;63.10;;;;;;4916701;28;88878;-78
2023/08/30 12:19:12;;;;;;;100.65;54.75;;;20.20;61.20;;;;;;4924514;28;89575;-78
2023/08/30 12:21:42;;;;;;;102.38;55.30;;;20.30;63.40;;;;;;4921876;28;91347;-78